Frederick, PA (19435)

5:55 PM EDT on July 06, 2015 (GMT -0400)
Gilbertsville | | Change Station
CLOSE
Current Station
Personal Weather Station
Location: Gilbertsville, PA
Elevation: 338 ft
Nearby Weather Stations

Elev 338 ft 40.30 °N, 75.62 °W | Updated 57 seconds ago

Overcast
Overcast
83.9 °F
Feels Like 90 °F
N
1.0
Wind Variable Wind from SE
Gusts 4.0 mph

Today
High -- | Low -- °F
--% Chance of Precip.
Yesterday
High -- | Low -- °F
Precip. -- in
5:38 AM 8:34 PM
Waning Gibbous, 72% visible
Pressure 30.08 in
Visibility 10.0 miles
Clouds Scattered Clouds 3500 ft
Mostly Cloudy 4700 ft
Mostly Cloudy 6000 ft
Heat Index 90 °F
Dew Point 73 °F
Humidity 70%
Rainfall 0.00 in
Snow Depth Not available.
UV 0.0 out of 12
Pollen 2.70 out of 12
Air Quality Not available.
Flu Activity Not available.
METAR KPTW 062054Z AUTO VRB03KT 10SM SCT035 BKN047 BKN060 28/22 A3009 RMK AO2 RAB34E47 SLP185 P0001 60001 T02780217 56015

More Conditions Fewer Conditions

Pressure 30.08 in
Visibility 10.0 miles
Clouds Scattered Clouds 3500 ft
Mostly Cloudy 4700 ft
Mostly Cloudy 6000 ft
Heat Index 90 °F
Dew Point 73 °F
Humidity 70%
Rainfall 0.00 in
Snow Depth Not available.
UV 0.0 out of 12
Pollen 2.70 out of 12
Air Quality Not available.
Flu Activity Not available.
METAR KPTW 062054Z AUTO VRB03KT 10SM SCT035 BKN047 BKN060 28/22 A3009 RMK AO2 RAB34E47 SLP185 P0001 60001 T02780217 56015

More Conditions Fewer Conditions

Nowcast | as of 3:46 PM EDT on July 6, 2015

Isolated to scattered showers will continue to develop and spread across the area through the late afternoon hours. A few areas may see a brief moderate to heavy downpour. A few rumbles of thunder area also possible.

×

10-Day Weather Forecast

×

Almanac

Astronomy

Jul. 06, 2015 Rise Set
Actual Time
Civil Twilight
Nautical Twilight
Astronomical Twilight
Moon
Length of Visible Light
Length of Day
Tomorrow will be .
, % of the Moon is Illuminated

Today's Extremes

State Highs State Lows

Community

WunderPhotos

Upload Photos

1,835,663 photos uploaded!

WunderBlogs® & News

Nearby

Air Quality

  Air Quality AQ Index Pollutant
Not available.

Snow Depth

Station Depth Elevation

Earthquake Activity

City Distance Mag. Time & Date
Minimum magnitude displayed is 2.5.

Coastal Water Temperatures

Place Temperature

Stations

Nearby Weather Stations

Station Location Temp. Windchill Dew Point Humidity Wind Precip. Elev Updated Type